sensor_id;sensor_type;location;lat;lon;timestamp;temperature;humidity
15676;DHT22;7938;47.666;9.434;2023-04-10T04:02:49;2.40;99.90
15676;DHT22;7938;47.666;9.434;2023-04-10T04:05:16;2.20;99.90
15676;DHT22;7938;47.666;9.434;2023-04-10T04:07:43;2.10;99.90
15676;DHT22;7938;47.666;9.434;2023-04-10T04:10:10;2.00;99.90
15676;DHT22;7938;47.666;9.434;2023-04-10T04:12:37;2.00;99.90
15676;DHT22;7938;47.666;9.434;2023-04-10T04:15:05;2.00;99.90
15676;DHT22;7938;47.666;9.434;2023-04-10T04:17:32;1.80;99.90
15676;DHT22;7938;47.666;9.434;2023-04-10T04:20:00;1.80;99.90
15676;DHT22;7938;47.666;9.434;2023-04-10T04:22:27;1.70;99.90
15676;DHT22;7938;47.666;9.434;2023-04-10T04:24:54;1.70;99.90
15676;DHT22;7938;47.666;9.434;2023-04-10T04:27:21;1.70;99.90
15676;DHT22;7938;47.666;9.434;2023-04-10T04:29:48;1.70;99.90
15676;DHT22;7938;47.666;9.434;2023-04-10T04:32:15;1.70;99.90
15676;DHT22;7938;47.666;9.434;2023-04-10T04:37:10;1.70;99.90
15676;DHT22;7938;47.666;9.434;2023-04-10T04:39:37;1.80;99.90
15676;DHT22;7938;47.666;9.434;2023-04-10T04:42:04;1.90;99.90
15676;DHT22;7938;47.666;9.434;2023-04-10T04:44:32;1.90;99.90
15676;DHT22;7938;47.666;9.434;2023-04-10T04:46:59;1.90;99.90
15676;DHT22;7938;47.666;9.434;2023-04-10T04:49:25;1.90;99.90
15676;DHT22;7938;47.666;9.434;2023-04-10T04:51:52;1.90;99.90
15676;DHT22;7938;47.666;9.434;2023-04-10T04:54:20;1.90;99.90
15676;DHT22;7938;47.666;9.434;2023-04-10T04:56:47;1.90;99.90
15676;DHT22;7938;47.666;9.434;2023-04-10T04:59:14;1.90;99.90
15676;DHT22;7938;47.666;9.434;2023-04-10T05:01:41;2.00;99.90
15676;DHT22;7938;47.666;9.434;2023-04-10T05:04:08;2.00;99.90
15676;DHT22;7938;47.666;9.434;2023-04-10T05:06:35;2.00;99.90
15676;DHT22;7938;47.666;9.434;2023-04-10T05:09:02;2.10;99.90
15676;DHT22;7938;47.666;9.434;2023-04-10T05:11:30;2.10;99.90
15676;DHT22;7938;47.666;9.434;2023-04-10T05:13:57;2.10;99.90
15676;DHT22;7938;47.666;9.434;2023-04-10T05:16:23;2.10;99.90
15676;DHT22;7938;47.666;9.434;2023-04-10T05:18:50;2.20;99.90
15676;DHT22;7938;47.666;9.434;2023-04-10T05:21:17;2.20;99.90
15676;DHT22;7938;47.666;9.434;2023-04-10T05:23:44;2.20;99.90
15676;DHT22;7938;47.666;9.434;2023-04-10T05:26:11;2.30;99.90
15676;DHT22;7938;47.666;9.434;2023-04-10T05:28:39;2.40;99.90
15676;DHT22;7938;47.666;9.434;2023-04-10T05:31:06;2.50;99.90
15676;DHT22;7938;47.666;9.434;2023-04-10T05:33:33;2.50;99.90
15676;DHT22;7938;47.666;9.434;2023-04-10T05:36:00;2.80;99.90
15676;DHT22;7938;47.666;9.434;2023-04-10T05:38:27;2.70;99.90
15676;DHT22;7938;47.666;9.434;2023-04-10T05:40:54;2.80;99.90
15676;DHT22;7938;47.666;9.434;2023-04-10T05:43:21;2.70;99.90
15676;DHT22;7938;47.666;9.434;2023-04-10T05:45:49;2.80;99.90
15676;DHT22;7938;47.666;9.434;2023-04-10T05:48:16;2.90;99.90
15676;DHT22;7938;47.666;9.434;2023-04-10T05:53:13;3.00;99.90
15676;DHT22;7938;47.666;9.434;2023-04-10T05:55:40;3.10;99.90
15676;DHT22;7938;47.666;9.434;2023-04-10T05:58:07;3.10;99.90
15676;DHT22;7938;47.666;9.434;2023-04-10T06:00:34;3.20;99.90
15676;DHT22;7938;47.666;9.434;2023-04-10T06:03:03;3.20;99.90
15676;DHT22;7938;47.666;9.434;2023-04-10T06:05:32;3.30;99.90
15676;DHT22;7938;47.666;9.434;2023-04-10T06:08:00;3.40;99.90
15676;DHT22;7938;47.666;9.434;2023-04-10T06:10:28;3.60;99.90
15676;DHT22;7938;47.666;9.434;2023-04-10T06:12:55;3.50;99.90
15676;DHT22;7938;47.666;9.434;2023-04-10T06:15:22;3.70;99.90
15676;DHT22;7938;47.666;9.434;2023-04-10T06:17:48;3.70;99.90
15676;DHT22;7938;47.666;9.434;2023-04-10T06:20:17;3.80;99.90
15676;DHT22;7938;47.666;9.434;2023-04-10T06:22:44;3.90;99.90
15676;DHT22;7938;47.666;9.434;2023-04-10T06:25:11;4.00;99.90
15676;DHT22;7938;47.666;9.434;2023-04-10T06:27:38;4.00;99.90
15676;DHT22;7938;47.666;9.434;2023-04-10T06:30:07;4.20;99.90
15676;DHT22;7938;47.666;9.434;2023-04-10T06:32:34;4.30;99.90
15676;DHT22;7938;47.666;9.434;2023-04-10T06:35:01;4.40;99.90
15676;DHT22;7938;47.666;9.434;2023-04-10T06:37:30;4.50;99.90
15676;DHT22;7938;47.666;9.434;2023-04-10T06:40:05;4.70;99.90
15676;DHT22;7938;47.666;9.434;2023-04-10T06:42:32;4.90;99.90
15676;DHT22;7938;47.666;9.434;2023-04-10T06:44:59;5.00;99.90
15676;DHT22;7938;47.666;9.434;2023-04-10T06:47:26;5.20;99.90
15676;DHT22;7938;47.666;9.434;2023-04-10T06:49:53;5.40;99.90
15676;DHT22;7938;47.666;9.434;2023-04-10T06:52:20;5.60;99.90
15676;DHT22;7938;47.666;9.434;2023-04-10T06:54:48;5.70;99.90
15676;DHT22;7938;47.666;9.434;2023-04-10T06:57:15;5.80;99.90
15676;DHT22;7938;47.666;9.434;2023-04-10T06:59:43;6.00;99.90
15676;DHT22;7938;47.666;9.434;2023-04-10T07:02:10;6.10;99.90
15676;DHT22;7938;47.666;9.434;2023-04-10T07:04:37;6.20;99.90
15676;DHT22;7938;47.666;9.434;2023-04-10T07:07:04;6.30;99.90
15676;DHT22;7938;47.666;9.434;2023-04-10T07:09:34;6.30;99.90
15676;DHT22;7938;47.666;9.434;2023-04-10T07:12:02;7.10;99.90
15676;DHT22;7938;47.666;9.434;2023-04-10T07:14:32;6.50;99.90
15676;DHT22;7938;47.666;9.434;2023-04-10T07:16:59;6.60;99.90
15676;DHT22;7938;47.666;9.434;2023-04-10T07:19:26;6.60;99.90
15676;DHT22;7938;47.666;9.434;2023-04-10T07:21:53;6.70;99.60
15676;DHT22;7938;47.666;9.434;2023-04-10T07:24:20;6.80;99.20
15676;DHT22;7938;47.666;9.434;2023-04-10T07:26:47;6.80;99.00
15676;DHT22;7938;47.666;9.434;2023-04-10T07:29:15;6.80;99.30
15676;DHT22;7938;47.666;9.434;2023-04-10T07:31:42;6.80;98.60
15676;DHT22;7938;47.666;9.434;2023-04-10T07:34:09;6.80;99.20
15676;DHT22;7938;47.666;9.434;2023-04-10T07:36:36;6.90;99.40
15676;DHT22;7938;47.666;9.434;2023-04-10T07:39:03;7.00;99.60
15676;DHT22;7938;47.666;9.434;2023-04-10T07:41:30;7.00;98.70
15676;DHT22;7938;47.666;9.434;2023-04-10T07:43:57;6.90;98.50
15676;DHT22;7938;47.666;9.434;2023-04-10T07:46:26;7.00;99.20
15676;DHT22;7938;47.666;9.434;2023-04-10T07:48:53;7.10;99.40
15676;DHT22;7938;47.666;9.434;2023-04-10T07:51:21;7.40;99.00
15676;DHT22;7938;47.666;9.434;2023-04-10T07:53:48;7.40;99.00
15676;DHT22;7938;47.666;9.434;2023-04-10T07:56:16;7.60;99.90
15676;DHT22;7938;47.666;9.434;2023-04-10T07:58:43;7.60;99.60
15676;DHT22;7938;47.666;9.434;2023-04-10T08:01:11;7.80;98.30
15676;DHT22;7938;47.666;9.434;2023-04-10T08:03:44;7.80;98.30
15676;DHT22;7938;47.666;9.434;2023-04-10T08:06:12;7.90;98.80
15676;DHT22;7938;47.666;9.434;2023-04-10T08:08:42;7.90;98.50
15676;DHT22;7938;47.666;9.434;2023-04-10T08:11:22;8.10;98.90
15676;DHT22;7938;47.666;9.434;2023-04-10T08:13:51;8.20;98.90
15676;DHT22;7938;47.666;9.434;2023-04-10T08:16:23;8.30;97.90
15676;DHT22;7938;47.666;9.434;2023-04-10T08:18:53;8.40;98.20
15676;DHT22;7938;47.666;9.434;2023-04-10T08:21:21;8.60;97.30
15676;DHT22;7938;47.666;9.434;2023-04-10T08:23:49;8.70;98.00
15676;DHT22;7938;47.666;9.434;2023-04-10T08:26:16;8.80;98.00
15676;DHT22;7938;47.666;9.434;2023-04-10T08:28:45;8.80;96.90
15676;DHT22;7938;47.666;9.434;2023-04-10T08:31:14;9.10;97.50
15676;DHT22;7938;47.666;9.434;2023-04-10T08:33:41;9.10;97.50
15676;DHT22;7938;47.666;9.434;2023-04-10T08:36:10;9.30;98.00
15676;DHT22;7938;47.666;9.434;2023-04-10T08:38:40;9.20;96.30
15676;DHT22;7938;47.666;9.434;2023-04-10T08:41:10;9.50;97.20
15676;DHT22;7938;47.666;9.434;2023-04-10T08:43:38;9.50;97.60
15676;DHT22;7938;47.666;9.434;2023-04-10T08:46:06;9.60;95.80
15676;DHT22;7938;47.666;9.434;2023-04-10T08:48:37;9.80;96.70
15676;DHT22;7938;47.666;9.434;2023-04-10T08:51:11;9.60;96.70
15676;DHT22;7938;47.666;9.434;2023-04-10T08:53:40;9.60;97.30
15676;DHT22;7938;47.666;9.434;2023-04-10T08:56:11;9.70;96.60
15676;DHT22;7938;47.666;9.434;2023-04-10T08:58:43;9.40;96.20
15676;DHT22;7938;47.666;9.434;2023-04-10T09:01:11;9.10;96.70
15676;DHT22;7938;47.666;9.434;2023-04-10T09:03:38;9.10;97.50
15676;DHT22;7938;47.666;9.434;2023-04-10T09:06:06;9.10;97.40
15676;DHT22;7938;47.666;9.434;2023-04-10T09:08:36;9.10;97.30
15676;DHT22;7938;47.666;9.434;2023-04-10T09:11:04;9.20;96.80
15676;DHT22;7938;47.666;9.434;2023-04-10T09:13:36;9.20;96.80
15676;DHT22;7938;47.666;9.434;2023-04-10T09:16:04;8.90;97.00
15676;DHT22;7938;47.666;9.434;2023-04-10T09:18:43;8.90;98.10
15676;DHT22;7938;47.666;9.434;2023-04-10T09:21:12;8.50;98.90
15676;DHT22;7938;47.666;9.434;2023-04-10T09:23:44;8.50;99.30
15676;DHT22;7938;47.666;9.434;2023-04-10T09:26:22;8.80;99.50
15676;DHT22;7938;47.666;9.434;2023-04-10T09:29:00;8.90;99.40
15676;DHT22;7938;47.666;9.434;2023-04-10T09:31:29;9.10;98.70
15676;DHT22;7938;47.666;9.434;2023-04-10T09:34:13;9.30;98.80
15676;DHT22;7938;47.666;9.434;2023-04-10T09:36:43;9.20;98.40
15676;DHT22;7938;47.666;9.434;2023-04-10T09:39:14;9.20;98.40
15676;DHT22;7938;47.666;9.434;2023-04-10T09:41:49;9.30;98.70
15676;DHT22;7938;47.666;9.434;2023-04-10T09:44:18;9.50;98.50
15676;DHT22;7938;47.666;9.434;2023-04-10T09:46:53;9.20;98.20
15676;DHT22;7938;47.666;9.434;2023-04-10T09:49:20;9.40;98.90
15676;DHT22;7938;47.666;9.434;2023-04-10T09:51:48;9.40;98.10
15676;DHT22;7938;47.666;9.434;2023-04-10T09:54:16;9.50;98.80
15676;DHT22;7938;47.666;9.434;2023-04-10T09:56:45;9.50;99.00
15676;DHT22;7938;47.666;9.434;2023-04-10T09:59:14;9.60;98.90
15676;DHT22;7938;47.666;9.434;2023-04-10T10:01:43;9.60;97.70
15676;DHT22;7938;47.666;9.434;2023-04-10T10:04:11;9.70;97.80
15676;DHT22;7938;47.666;9.434;2023-04-10T10:06:43;9.70;98.70
15676;DHT22;7938;47.666;9.434;2023-04-10T10:09:11;9.90;98.20
15676;DHT22;7938;47.666;9.434;2023-04-10T10:11:41;10.10;97.50
15676;DHT22;7938;47.666;9.434;2023-04-10T10:14:15;10.20;97.40
15676;DHT22;7938;47.666;9.434;2023-04-10T10:16:48;10.30;97.60
15676;DHT22;7938;47.666;9.434;2023-04-10T10:19:20;10.40;97.70
15676;DHT22;7938;47.666;9.434;2023-04-10T10:21:51;10.40;96.80
15676;DHT22;7938;47.666;9.434;2023-04-10T10:24:19;10.50;96.90
15676;DHT22;7938;47.666;9.434;2023-04-10T10:26:51;10.60;97.20
15676;DHT22;7938;47.666;9.434;2023-04-10T10:29:23;10.90;97.50
15676;DHT22;7938;47.666;9.434;2023-04-10T10:31:52;11.20;97.50
15676;DHT22;7938;47.666;9.434;2023-04-10T10:34:22;11.30;97.60
15676;DHT22;7938;47.666;9.434;2023-04-10T10:36:50;11.50;97.50
15676;DHT22;7938;47.666;9.434;2023-04-10T10:39:26;11.60;95.70
15676;DHT22;7938;47.666;9.434;2023-04-10T10:42:01;11.70;96.50
15676;DHT22;7938;47.666;9.434;2023-04-10T10:44:40;11.80;96.20
15676;DHT22;7938;47.666;9.434;2023-04-10T10:47:13;11.90;95.60
15676;DHT22;7938;47.666;9.434;2023-04-10T10:49:54;12.00;96.10
15676;DHT22;7938;47.666;9.434;2023-04-10T10:52:42;12.30;96.40
15676;DHT22;7938;47.666;9.434;2023-04-10T10:55:32;12.10;95.70
15676;DHT22;7938;47.666;9.434;2023-04-10T10:58:05;12.00;95.10
15676;DHT22;7938;47.666;9.434;2023-04-10T11:01:04;11.90;94.50
15676;DHT22;7938;47.666;9.434;2023-04-10T11:03:35;11.90;95.10
15676;DHT22;7938;47.666;9.434;2023-04-10T11:06:06;11.80;95.60
15676;DHT22;7938;47.666;9.434;2023-04-10T11:08:42;11.70;94.80
15676;DHT22;7938;47.666;9.434;2023-04-10T11:11:16;11.90;96.10
15676;DHT22;7938;47.666;9.434;2023-04-10T11:14:19;11.80;95.80
15676;DHT22;7938;47.666;9.434;2023-04-10T11:19:15;12.00;95.30
15676;DHT22;7938;47.666;9.434;2023-04-10T11:22:05;12.10;94.70
15676;DHT22;7938;47.666;9.434;2023-04-10T11:25:05;12.10;94.10
15676;DHT22;7938;47.666;9.434;2023-04-10T11:27:43;12.50;94.50
15676;DHT22;7938;47.666;9.434;2023-04-10T11:30:32;12.80;94.60
15676;DHT22;7938;47.666;9.434;2023-04-10T11:32:59;12.80;94.70
15676;DHT22;7938;47.666;9.434;2023-04-10T11:38:23;12.90;93.50
15676;DHT22;7938;47.666;9.434;2023-04-10T11:40:59;13.30;92.80
15676;DHT22;7938;47.666;9.434;2023-04-10T11:43:27;13.30;93.10
15676;DHT22;7938;47.666;9.434;2023-04-10T11:46:13;13.00;92.40
15676;DHT22;7938;47.666;9.434;2023-04-10T11:48:41;12.90;91.60
15676;DHT22;7938;47.666;9.434;2023-04-10T11:51:10;12.40;91.80
15676;DHT22;7938;47.666;9.434;2023-04-10T11:53:37;12.40;91.60
15676;DHT22;7938;47.666;9.434;2023-04-10T11:56:13;12.30;92.90
15676;DHT22;7938;47.666;9.434;2023-04-10T11:58:40;12.30;93.90
15676;DHT22;7938;47.666;9.434;2023-04-10T12:01:08;11.60;92.90
15676;DHT22;7938;47.666;9.434;2023-04-10T12:03:42;11.50;93.50
15676;DHT22;7938;47.666;9.434;2023-04-10T12:06:10;11.30;94.20
15676;DHT22;7938;47.666;9.434;2023-04-10T12:08:40;11.90;93.60
15676;DHT22;7938;47.666;9.434;2023-04-10T12:11:09;12.10;93.40
15676;DHT22;7938;47.666;9.434;2023-04-10T12:13:38;12.20;93.50
15676;DHT22;7938;47.666;9.434;2023-04-10T12:16:07;12.50;92.30
15676;DHT22;7938;47.666;9.434;2023-04-10T12:18:34;12.70;92.70
15676;DHT22;7938;47.666;9.434;2023-04-10T12:21:04;12.90;91.10
15676;DHT22;7938;47.666;9.434;2023-04-10T12:23:32;12.90;91.20
15676;DHT22;7938;47.666;9.434;2023-04-10T12:26:10;12.90;91.60
15676;DHT22;7938;47.666;9.434;2023-04-10T12:28:39;13.20;92.40
15676;DHT22;7938;47.666;9.434;2023-04-10T12:31:07;13.20;89.30
15676;DHT22;7938;47.666;9.434;2023-04-10T12:33:35;13.30;90.20
15676;DHT22;7938;47.666;9.434;2023-04-10T12:36:03;13.40;90.20
15676;DHT22;7938;47.666;9.434;2023-04-10T12:38:37;13.40;88.20
15676;DHT22;7938;47.666;9.434;2023-04-10T12:43:35;14.00;90.30
15676;DHT22;7938;47.666;9.434;2023-04-10T12:46:04;13.70;90.50
15676;DHT22;7938;47.666;9.434;2023-04-10T12:48:31;13.90;89.80
15676;DHT22;7938;47.666;9.434;2023-04-10T12:50:59;14.20;82.80
15676;DHT22;7938;47.666;9.434;2023-04-10T12:53:27;14.40;82.40
15676;DHT22;7938;47.666;9.434;2023-04-10T12:56:02;14.40;83.10
15676;DHT22;7938;47.666;9.434;2023-04-10T12:58:31;14.40;83.00
15676;DHT22;7938;47.666;9.434;2023-04-10T13:01:02;14.50;84.20
15676;DHT22;7938;47.666;9.434;2023-04-10T13:03:29;14.70;83.70
15676;DHT22;7938;47.666;9.434;2023-04-10T13:05:57;14.80;85.10
15676;DHT22;7938;47.666;9.434;2023-04-10T13:08:24;15.00;79.70
15676;DHT22;7938;47.666;9.434;2023-04-10T13:10:53;15.20;78.90
15676;DHT22;7938;47.666;9.434;2023-04-10T13:13:22;15.30;80.00
15676;DHT22;7938;47.666;9.434;2023-04-10T13:18:18;15.50;78.20
15676;DHT22;7938;47.666;9.434;2023-04-10T13:23:12;15.70;74.20
15676;DHT22;7938;47.666;9.434;2023-04-10T13:25:39;15.70;75.90
15676;DHT22;7938;47.666;9.434;2023-04-10T13:28:08;15.70;77.30
15676;DHT22;7938;47.666;9.434;2023-04-10T13:30:37;16.20;75.00
15676;DHT22;7938;47.666;9.434;2023-04-10T13:33:04;16.10;75.40
15676;DHT22;7938;47.666;9.434;2023-04-10T13:35:31;16.20;74.50
15676;DHT22;7938;47.666;9.434;2023-04-10T13:37:58;16.40;73.90
15676;DHT22;7938;47.666;9.434;2023-04-10T13:40:26;16.60;71.10
15676;DHT22;7938;47.666;9.434;2023-04-10T13:42:52;16.70;71.90
15676;DHT22;7938;47.666;9.434;2023-04-10T13:45:21;16.70;74.40
15676;DHT22;7938;47.666;9.434;2023-04-10T13:47:48;17.00;68.60
15676;DHT22;7938;47.666;9.434;2023-04-10T13:50:16;16.90;70.40
15676;DHT22;7938;47.666;9.434;2023-04-10T13:52:43;16.80;69.90
15676;DHT22;7938;47.666;9.434;2023-04-10T13:55:10;16.80;71.90
15676;DHT22;7938;47.666;9.434;2023-04-10T13:57:37;16.90;69.60
15676;DHT22;7938;47.666;9.434;2023-04-10T14:00:06;16.80;70.10
15676;DHT22;7938;47.666;9.434;2023-04-10T14:02:34;16.60;72.20
15676;DHT22;7938;47.666;9.434;2023-04-10T14:05:03;16.80;68.80
15676;DHT22;7938;47.666;9.434;2023-04-10T14:07:31;17.30;69.10
15676;DHT22;7938;47.666;9.434;2023-04-10T14:10:01;17.30;69.30
15676;DHT22;7938;47.666;9.434;2023-04-10T14:12:28;17.50;64.30
15676;DHT22;7938;47.666;9.434;2023-04-10T14:14:55;17.40;62.50
15676;DHT22;7938;47.666;9.434;2023-04-10T14:17:22;17.30;61.40
15676;DHT22;7938;47.666;9.434;2023-04-10T14:19:51;17.30;61.20
15676;DHT22;7938;47.666;9.434;2023-04-10T14:22:18;17.50;59.30
15676;DHT22;7938;47.666;9.434;2023-04-10T14:24:45;17.60;57.50
15676;DHT22;7938;47.666;9.434;2023-04-10T14:27:12;17.40;55.30
15676;DHT22;7938;47.666;9.434;2023-04-10T14:29:40;17.50;59.60
15676;DHT22;7938;47.666;9.434;2023-04-10T14:32:07;17.40;58.20
15676;DHT22;7938;47.666;9.434;2023-04-10T14:34:34;17.20;60.60
15676;DHT22;7938;47.666;9.434;2023-04-10T14:37:02;17.50;61.50
15676;DHT22;7938;47.666;9.434;2023-04-10T14:39:29;17.70;59.00
15676;DHT22;7938;47.666;9.434;2023-04-10T14:41:56;17.90;58.40
15676;DHT22;7938;47.666;9.434;2023-04-10T14:46:50;17.10;57.70
15676;DHT22;7938;47.666;9.434;2023-04-10T14:49:17;17.00;56.60
15676;DHT22;7938;47.666;9.434;2023-04-10T14:51:44;17.00;54.90
15676;DHT22;7938;47.666;9.434;2023-04-10T14:54:14;16.90;56.00
15676;DHT22;7938;47.666;9.434;2023-04-10T14:56:41;17.00;55.20
15676;DHT22;7938;47.666;9.434;2023-04-10T14:59:08;17.00;56.70
15676;DHT22;7938;47.666;9.434;2023-04-10T15:01:36;17.20;56.90
15676;DHT22;7938;47.666;9.434;2023-04-10T15:04:02;17.30;58.10
15676;DHT22;7938;47.666;9.434;2023-04-10T15:06:31;17.50;58.40
15676;DHT22;7938;47.666;9.434;2023-04-10T15:08:58;18.20;57.60
15676;DHT22;7938;47.666;9.434;2023-04-10T15:11:27;19.30;58.60
15676;DHT22;7938;47.666;9.434;2023-04-10T15:13:54;19.30;59.20
15676;DHT22;7938;47.666;9.434;2023-04-10T15:16:21;19.50;60.50
15676;DHT22;7938;47.666;9.434;2023-04-10T15:18:48;19.70;62.20
15676;DHT22;7938;47.666;9.434;2023-04-10T15:21:15;20.00;59.60
15676;DHT22;7938;47.666;9.434;2023-04-10T15:23:42;20.00;57.00
15676;DHT22;7938;47.666;9.434;2023-04-10T15:26:12;19.20;59.50
15676;DHT22;7938;47.666;9.434;2023-04-10T15:28:43;19.20;60.50
15676;DHT22;7938;47.666;9.434;2023-04-10T15:31:12;19.30;60.00
15676;DHT22;7938;47.666;9.434;2023-04-10T15:33:40;18.80;59.60
15676;DHT22;7938;47.666;9.434;2023-04-10T15:36:08;18.70;60.40
15676;DHT22;7938;47.666;9.434;2023-04-10T15:38:36;18.10;59.50
15676;DHT22;7938;47.666;9.434;2023-04-10T15:41:07;17.50;61.40
15676;DHT22;7938;47.666;9.434;2023-04-10T15:43:35;17.30;60.00
15676;DHT22;7938;47.666;9.434;2023-04-10T15:46:06;17.00;58.20
15676;DHT22;7938;47.666;9.434;2023-04-10T15:48:36;16.80;57.40
15676;DHT22;7938;47.666;9.434;2023-04-10T15:51:06;16.50;57.90
15676;DHT22;7938;47.666;9.434;2023-04-10T15:53:34;16.50;58.40
15676;DHT22;7938;47.666;9.434;2023-04-10T15:56:05;16.10;59.10
15676;DHT22;7938;47.666;9.434;2023-04-10T15:58:34;16.00;57.00
15676;DHT22;7938;47.666;9.434;2023-04-10T16:01:05;15.60;57.10
15676;DHT22;7938;47.666;9.434;2023-04-10T16:03:33;15.60;57.70
15676;DHT22;7938;47.666;9.434;2023-04-10T16:08:31;15.60;54.00
15676;DHT22;7938;47.666;9.434;2023-04-10T16:10:59;15.40;55.20
15676;DHT22;7938;47.666;9.434;2023-04-10T16:13:27;15.50;56.20
15676;DHT22;7938;47.666;9.434;2023-04-10T16:15:55;15.30;57.70
15676;DHT22;7938;47.666;9.434;2023-04-10T16:18:25;15.40;56.00
15676;DHT22;7938;47.666;9.434;2023-04-10T16:20:52;15.50;56.60
15676;DHT22;7938;47.666;9.434;2023-04-10T16:23:19;15.40;55.70
15676;DHT22;7938;47.666;9.434;2023-04-10T16:25:46;15.30;55.20
15676;DHT22;7938;47.666;9.434;2023-04-10T16:28:15;15.30;56.50
15676;DHT22;7938;47.666;9.434;2023-04-10T16:30:44;15.50;58.50
15676;DHT22;7938;47.666;9.434;2023-04-10T16:33:11;15.30;57.20
15676;DHT22;7938;47.666;9.434;2023-04-10T16:35:41;15.50;58.90
15676;DHT22;7938;47.666;9.434;2023-04-10T16:38:09;15.40;56.90
15676;DHT22;7938;47.666;9.434;2023-04-10T16:40:38;15.40;57.00
15676;DHT22;7938;47.666;9.434;2023-04-10T16:43:06;15.10;56.00
15676;DHT22;7938;47.666;9.434;2023-04-10T16:45:34;15.00;56.80
15676;DHT22;7938;47.666;9.434;2023-04-10T16:48:02;15.00;58.90
15676;DHT22;7938;47.666;9.434;2023-04-10T16:50:33;14.80;57.80
15676;DHT22;7938;47.666;9.434;2023-04-10T16:53:02;14.60;58.20
15676;DHT22;7938;47.666;9.434;2023-04-10T16:55:29;14.40;58.90
15676;DHT22;7938;47.666;9.434;2023-04-10T16:57:56;14.20;58.00
15676;DHT22;7938;47.666;9.434;2023-04-10T17:00:24;14.10;62.80
15676;DHT22;7938;47.666;9.434;2023-04-10T17:02:51;14.00;59.50
15676;DHT22;7938;47.666;9.434;2023-04-10T17:05:18;13.90;59.10
15676;DHT22;7938;47.666;9.434;2023-04-10T17:07:46;13.90;61.10
15676;DHT22;7938;47.666;9.434;2023-04-10T17:10:15;13.70;61.50
15676;DHT22;7938;47.666;9.434;2023-04-10T17:12:42;13.60;60.60
15676;DHT22;7938;47.666;9.434;2023-04-10T17:17:38;13.40;62.20
15676;DHT22;7938;47.666;9.434;2023-04-10T17:20:06;13.30;63.40
15676;DHT22;7938;47.666;9.434;2023-04-10T17:22:34;13.20;62.80
15676;DHT22;7938;47.666;9.434;2023-04-10T17:25:02;13.20;62.80
15676;DHT22;7938;47.666;9.434;2023-04-10T17:27:32;13.00;62.80
15676;DHT22;7938;47.666;9.434;2023-04-10T17:30:00;12.90;62.10
15676;DHT22;7938;47.666;9.434;2023-04-10T17:32:27;12.80;63.50
15676;DHT22;7938;47.666;9.434;2023-04-10T17:34:55;12.70;65.60
15676;DHT22;7938;47.666;9.434;2023-04-10T17:37:24;12.60;63.40
15676;DHT22;7938;47.666;9.434;2023-04-10T17:39:52;12.60;62.80
15676;DHT22;7938;47.666;9.434;2023-04-10T17:42:21;12.50;67.40
15676;DHT22;7938;47.666;9.434;2023-04-10T17:44:51;12.40;65.30
15676;DHT22;7938;47.666;9.434;2023-04-10T17:47:20;12.30;67.20
15676;DHT22;7938;47.666;9.434;2023-04-10T17:52:17;12.00;64.00
15676;DHT22;7938;47.666;9.434;2023-04-10T17:54:45;11.90;64.00
15676;DHT22;7938;47.666;9.434;2023-04-10T17:57:14;11.80;64.60
15676;DHT22;7938;47.666;9.434;2023-04-10T17:59:43;11.70;66.40
15676;DHT22;7938;47.666;9.434;2023-04-10T18:02:12;11.60;69.80
15676;DHT22;7938;47.666;9.434;2023-04-10T18:04:41;11.50;70.30
15676;DHT22;7938;47.666;9.434;2023-04-10T18:07:10;11.50;71.80
15676;DHT22;7938;47.666;9.434;2023-04-10T18:09:39;11.60;73.60
15676;DHT22;7938;47.666;9.434;2023-04-10T18:12:07;11.70;72.80
15676;DHT22;7938;47.666;9.434;2023-04-10T18:14:37;11.60;72.40
15676;DHT22;7938;47.666;9.434;2023-04-10T18:17:05;11.50;72.60
15676;DHT22;7938;47.666;9.434;2023-04-10T18:19:35;11.40;72.80
15676;DHT22;7938;47.666;9.434;2023-04-10T18:22:05;11.20;72.10
15676;DHT22;7938;47.666;9.434;2023-04-10T18:24:33;11.20;73.80
15676;DHT22;7938;47.666;9.434;2023-04-10T18:27:00;11.10;74.40
15676;DHT22;7938;47.666;9.434;2023-04-10T18:29:29;11.10;77.30
15676;DHT22;7938;47.666;9.434;2023-04-10T18:31:57;11.00;77.60
15676;DHT22;7938;47.666;9.434;2023-04-10T18:34:25;11.00;78.10
15676;DHT22;7938;47.666;9.434;2023-04-10T18:36:54;11.00;76.70
15676;DHT22;7938;47.666;9.434;2023-04-10T18:39:22;10.90;77.10
15676;DHT22;7938;47.666;9.434;2023-04-10T18:41:49;11.00;75.70
15676;DHT22;7938;47.666;9.434;2023-04-10T18:44:16;11.00;75.80
15676;DHT22;7938;47.666;9.434;2023-04-10T18:46:44;10.90;79.70
15676;DHT22;7938;47.666;9.434;2023-04-10T18:49:11;10.80;79.00
15676;DHT22;7938;47.666;9.434;2023-04-10T18:51:39;10.80;79.40
15676;DHT22;7938;47.666;9.434;2023-04-10T18:54:07;11.00;78.10
15676;DHT22;7938;47.666;9.434;2023-04-10T18:56:35;11.00;78.50
15676;DHT22;7938;47.666;9.434;2023-04-10T18:59:03;11.10;79.50
15676;DHT22;7938;47.666;9.434;2023-04-10T19:01:31;10.90;82.00
15676;DHT22;7938;47.666;9.434;2023-04-10T19:04:00;10.80;80.70
15676;DHT22;7938;47.666;9.434;2023-04-10T19:06:27;10.80;81.30
15676;DHT22;7938;47.666;9.434;2023-04-10T19:08:57;10.60;82.70
15676;DHT22;7938;47.666;9.434;2023-04-10T19:11:27;10.50;81.20
15676;DHT22;7938;47.666;9.434;2023-04-10T19:13:56;10.50;82.10
15676;DHT22;7938;47.666;9.434;2023-04-10T19:16:23;10.70;80.90
15676;DHT22;7938;47.666;9.434;2023-04-10T19:18:52;10.90;80.80
15676;DHT22;7938;47.666;9.434;2023-04-10T19:21:19;10.70;82.10
15676;DHT22;7938;47.666;9.434;2023-04-10T19:23:47;10.60;82.50
15676;DHT22;7938;47.666;9.434;2023-04-10T19:26:14;10.60;83.20
15676;DHT22;7938;47.666;9.434;2023-04-10T19:28:44;10.50;84.80
15676;DHT22;7938;47.666;9.434;2023-04-10T19:31:11;10.40;83.40
15676;DHT22;7938;47.666;9.434;2023-04-10T19:33:38;10.40;84.10
15676;DHT22;7938;47.666;9.434;2023-04-10T19:36:06;10.30;83.20
15676;DHT22;7938;47.666;9.434;2023-04-10T19:38:34;10.30;82.90
15676;DHT22;7938;47.666;9.434;2023-04-10T19:41:02;10.30;86.20
15676;DHT22;7938;47.666;9.434;2023-04-10T19:43:29;10.30;85.00
15676;DHT22;7938;47.666;9.434;2023-04-10T19:45:58;10.40;86.70
15676;DHT22;7938;47.666;9.434;2023-04-10T19:48:26;10.30;86.60
15676;DHT22;7938;47.666;9.434;2023-04-10T19:50:54;10.30;88.10
15676;DHT22;7938;47.666;9.434;2023-04-10T19:53:29;10.30;88.20
15676;DHT22;7938;47.666;9.434;2023-04-10T19:55:56;10.30;86.90
15676;DHT22;7938;47.666;9.434;2023-04-10T19:58:24;10.30;86.70
15676;DHT22;7938;47.666;9.434;2023-04-10T20:00:51;10.20;88.90
15676;DHT22;7938;47.666;9.434;2023-04-10T20:03:21;10.20;89.40
15676;DHT22;7938;47.666;9.434;2023-04-10T20:05:51;10.20;90.00
15676;DHT22;7938;47.666;9.434;2023-04-10T20:08:19;10.10;89.60
15676;DHT22;7938;47.666;9.434;2023-04-10T20:10:46;10.00;91.00
15676;DHT22;7938;47.666;9.434;2023-04-10T20:15:41;10.00;90.30
15676;DHT22;7938;47.666;9.434;2023-04-10T20:18:08;10.00;90.40
15676;DHT22;7938;47.666;9.434;2023-04-10T20:20:37;9.90;90.80
15676;DHT22;7938;47.666;9.434;2023-04-10T20:23:04;10.00;90.40
15676;DHT22;7938;47.666;9.434;2023-04-10T20:25:31;10.00;90.40
15676;DHT22;7938;47.666;9.434;2023-04-10T20:27:59;10.00;90.70
15676;DHT22;7938;47.666;9.434;2023-04-10T20:32:54;10.00;91.00
15676;DHT22;7938;47.666;9.434;2023-04-10T20:35:21;10.00;91.10
15676;DHT22;7938;47.666;9.434;2023-04-10T20:37:50;10.10;91.10